sensor_id;sensor_type;location;lat;lon;timestamp;pressure;altitude;pressure_sealevel;temperature;humidity
75089;BME280;63673;49.928;8.150;2024-02-26T00:00:09;972.39;;;5.92;100
75089;BME280;63673;49.928;8.150;2024-02-26T00:01:10;972.49;;;5.92;100
75089;BME280;63673;49.928;8.150;2024-02-26T00:02:12;972.53;;;5.92;100
75089;BME280;63673;49.928;8.150;2024-02-26T00:03:14;972.61;;;5.93;100
75089;BME280;63673;49.928;8.150;2024-02-26T00:04:15;972.6;;;5.93;100
75089;BME280;63673;49.928;8.150;2024-02-26T00:05:17;972.58;;;5.94;100
75089;BME280;63673;49.928;8.150;2024-02-26T00:06:20;972.58;;;5.94;100
75089;BME280;63673;49.928;8.150;2024-02-26T00:07:21;972.59;;;5.95;100
75089;BME280;63673;49.928;8.150;2024-02-26T00:08:22;972.65;;;5.95;100
75089;BME280;63673;49.928;8.150;2024-02-26T00:09:24;972.72;;;5.95;100
75089;BME280;63673;49.928;8.150;2024-02-26T00:10:26;972.73;;;5.95;100
75089;BME280;63673;49.928;8.150;2024-02-26T00:11:27;972.64;;;5.96;100
75089;BME280;63673;49.928;8.150;2024-02-26T00:12:29;972.58;;;5.96;100
75089;BME280;63673;49.928;8.150;2024-02-26T00:13:31;972.5;;;5.95;100
75089;BME280;63673;49.928;8.150;2024-02-26T00:14:33;972.52;;;5.96;100
75089;BME280;63673;49.928;8.150;2024-02-26T00:15:34;972.48;;;5.97;100
75089;BME280;63673;49.928;8.150;2024-02-26T00:16:36;972.47;;;5.97;100
75089;BME280;63673;49.928;8.150;2024-02-26T00:17:38;972.46;;;5.97;100
75089;BME280;63673;49.928;8.150;2024-02-26T00:18:40;972.46;;;5.97;100
75089;BME280;63673;49.928;8.150;2024-02-26T00:19:41;972.45;;;5.97;100
75089;BME280;63673;49.928;8.150;2024-02-26T00:20:43;972.38;;;5.96;100
75089;BME280;63673;49.928;8.150;2024-02-26T00:21:45;972.36;;;5.96;100
75089;BME280;63673;49.928;8.150;2024-02-26T00:22:46;972.37;;;5.96;100
75089;BME280;63673;49.928;8.150;2024-02-26T00:23:49;972.34;;;5.96;100
75089;BME280;63673;49.928;8.150;2024-02-26T00:24:50;972.3;;;5.95;100
75089;BME280;63673;49.928;8.150;2024-02-26T00:25:52;972.24;;;5.93;100
75089;BME280;63673;49.928;8.150;2024-02-26T00:26:53;972.25;;;5.93;100
75089;BME280;63673;49.928;8.150;2024-02-26T00:27:55;972.32;;;5.91;100
75089;BME280;63673;49.928;8.150;2024-02-26T00:28:57;972.29;;;5.89;100
75089;BME280;63673;49.928;8.150;2024-02-26T00:29:59;972.33;;;5.89;100
75089;BME280;63673;49.928;8.150;2024-02-26T00:31:00;972.36;;;5.88;100
75089;BME280;63673;49.928;8.150;2024-02-26T00:32:02;972.35;;;5.87;100
75089;BME280;63673;49.928;8.150;2024-02-26T00:33:04;972.38;;;5.87;100
75089;BME280;63673;49.928;8.150;2024-02-26T00:34:06;972.28;;;5.87;100
75089;BME280;63673;49.928;8.150;2024-02-26T00:35:07;972.35;;;5.87;100
75089;BME280;63673;49.928;8.150;2024-02-26T00:36:09;972.36;;;5.88;100
75089;BME280;63673;49.928;8.150;2024-02-26T00:37:11;972.36;;;5.87;100
75089;BME280;63673;49.928;8.150;2024-02-26T00:38:13;972.31;;;5.88;100
75089;BME280;63673;49.928;8.150;2024-02-26T00:39:14;972.32;;;5.87;100
75089;BME280;63673;49.928;8.150;2024-02-26T00:40:16;972.29;;;5.86;100
75089;BME280;63673;49.928;8.150;2024-02-26T00:41:18;972.39;;;5.88;100
75089;BME280;63673;49.928;8.150;2024-02-26T00:42:19;972.47;;;5.88;100
75089;BME280;63673;49.928;8.150;2024-02-26T00:43:21;972.42;;;5.88;100
75089;BME280;63673;49.928;8.150;2024-02-26T00:44:23;972.41;;;5.89;100
75089;BME280;63673;49.928;8.150;2024-02-26T00:45:25;972.36;;;5.89;100
75089;BME280;63673;49.928;8.150;2024-02-26T00:46:26;972.47;;;5.89;100
75089;BME280;63673;49.928;8.150;2024-02-26T00:47:28;972.37;;;5.9;100
75089;BME280;63673;49.928;8.150;2024-02-26T00:48:30;972.37;;;5.89;100
75089;BME280;63673;49.928;8.150;2024-02-26T00:49:32;972.36;;;5.89;100
75089;BME280;63673;49.928;8.150;2024-02-26T00:50:33;972.34;;;5.89;100
75089;BME280;63673;49.928;8.150;2024-02-26T00:51:35;972.39;;;5.89;100
75089;BME280;63673;49.928;8.150;2024-02-26T00:52:37;972.38;;;5.88;100
75089;BME280;63673;49.928;8.150;2024-02-26T00:53:38;972.31;;;5.87;100
75089;BME280;63673;49.928;8.150;2024-02-26T00:54:40;972.27;;;5.87;100
75089;BME280;63673;49.928;8.150;2024-02-26T00:55:42;972.31;;;5.87;100
75089;BME280;63673;49.928;8.150;2024-02-26T00:56:44;972.29;;;5.86;100
75089;BME280;63673;49.928;8.150;2024-02-26T00:57:45;972.14;;;5.86;100
75089;BME280;63673;49.928;8.150;2024-02-26T00:58:47;972.18;;;5.84;100
75089;BME280;63673;49.928;8.150;2024-02-26T00:59:49;972.15;;;5.84;100
75089;BME280;63673;49.928;8.150;2024-02-26T01:00:51;972.16;;;5.83;100
75089;BME280;63673;49.928;8.150;2024-02-26T01:01:52;972.02;;;5.82;100
75089;BME280;63673;49.928;8.150;2024-02-26T01:02:54;971.95;;;5.83;100
75089;BME280;63673;49.928;8.150;2024-02-26T01:03:56;971.98;;;5.84;100
75089;BME280;63673;49.928;8.150;2024-02-26T01:04:58;972.12;;;5.83;100
75089;BME280;63673;49.928;8.150;2024-02-26T01:05:59;972.21;;;5.85;100
75089;BME280;63673;49.928;8.150;2024-02-26T01:07:01;972.21;;;5.86;100
75089;BME280;63673;49.928;8.150;2024-02-26T01:08:03;972.22;;;5.87;100
75089;BME280;63673;49.928;8.150;2024-02-26T01:09:05;972.11;;;5.87;100
75089;BME280;63673;49.928;8.150;2024-02-26T01:10:06;972.19;;;5.88;100
75089;BME280;63673;49.928;8.150;2024-02-26T01:11:08;972.29;;;5.89;100
75089;BME280;63673;49.928;8.150;2024-02-26T01:12:10;972.22;;;5.91;100
75089;BME280;63673;49.928;8.150;2024-02-26T01:13:11;972.23;;;5.9;100
75089;BME280;63673;49.928;8.150;2024-02-26T01:14:13;972.27;;;5.92;100
75089;BME280;63673;49.928;8.150;2024-02-26T01:15:15;972.26;;;5.93;100
75089;BME280;63673;49.928;8.150;2024-02-26T01:16:17;972.19;;;5.93;100
75089;BME280;63673;49.928;8.150;2024-02-26T01:17:18;972.29;;;5.93;100
75089;BME280;63673;49.928;8.150;2024-02-26T01:18:20;972.34;;;5.95;100
75089;BME280;63673;49.928;8.150;2024-02-26T01:19:22;972.38;;;5.96;100
75089;BME280;63673;49.928;8.150;2024-02-26T01:20:24;972.37;;;5.96;100
75089;BME280;63673;49.928;8.150;2024-02-26T01:21:25;972.42;;;5.97;100
75089;BME280;63673;49.928;8.150;2024-02-26T01:22:27;972.39;;;5.98;100
75089;BME280;63673;49.928;8.150;2024-02-26T01:23:29;972.44;;;5.99;100
75089;BME280;63673;49.928;8.150;2024-02-26T01:24:31;972.49;;;5.99;100
75089;BME280;63673;49.928;8.150;2024-02-26T01:25:32;972.5;;;6;100
75089;BME280;63673;49.928;8.150;2024-02-26T01:26:34;972.49;;;6.01;100
75089;BME280;63673;49.928;8.150;2024-02-26T01:27:36;972.5;;;6.01;100
75089;BME280;63673;49.928;8.150;2024-02-26T01:28:37;972.53;;;6.01;100
75089;BME280;63673;49.928;8.150;2024-02-26T01:29:39;972.5;;;6.01;100
75089;BME280;63673;49.928;8.150;2024-02-26T01:30:41;972.51;;;6;100
75089;BME280;63673;49.928;8.150;2024-02-26T01:31:43;972.5;;;6;100
75089;BME280;63673;49.928;8.150;2024-02-26T01:32:44;972.53;;;5.99;100
75089;BME280;63673;49.928;8.150;2024-02-26T01:33:46;972.52;;;5.99;100
75089;BME280;63673;49.928;8.150;2024-02-26T01:34:48;972.53;;;5.97;100
75089;BME280;63673;49.928;8.150;2024-02-26T01:35:50;972.52;;;5.97;100
75089;BME280;63673;49.928;8.150;2024-02-26T01:36:51;972.47;;;5.96;100
75089;BME280;63673;49.928;8.150;2024-02-26T01:37:53;972.44;;;5.94;100
75089;BME280;63673;49.928;8.150;2024-02-26T01:38:55;972.53;;;5.93;100
75089;BME280;63673;49.928;8.150;2024-02-26T01:39:57;972.44;;;5.92;100
75089;BME280;63673;49.928;8.150;2024-02-26T01:40:58;972.34;;;5.92;100
75089;BME280;63673;49.928;8.150;2024-02-26T01:42:01;972.35;;;5.91;100
75089;BME280;63673;49.928;8.150;2024-02-26T01:43:02;972.34;;;5.91;100
75089;BME280;63673;49.928;8.150;2024-02-26T01:44:03;972.29;;;5.9;100
75089;BME280;63673;49.928;8.150;2024-02-26T01:45:05;972.25;;;5.91;100
75089;BME280;63673;49.928;8.150;2024-02-26T01:46:07;972.25;;;5.89;100
75089;BME280;63673;49.928;8.150;2024-02-26T01:47:10;972.26;;;5.9;100
75089;BME280;63673;49.928;8.150;2024-02-26T01:48:10;972.27;;;5.89;100
75089;BME280;63673;49.928;8.150;2024-02-26T01:49:12;972.34;;;5.89;100
75089;BME280;63673;49.928;8.150;2024-02-26T01:50:14;972.3;;;5.87;100
75089;BME280;63673;49.928;8.150;2024-02-26T01:51:16;972.31;;;5.88;100
75089;BME280;63673;49.928;8.150;2024-02-26T01:52:17;972.32;;;5.88;100
75089;BME280;63673;49.928;8.150;2024-02-26T01:53:19;972.38;;;5.87;100
75089;BME280;63673;49.928;8.150;2024-02-26T01:54:21;972.46;;;5.88;100
75089;BME280;63673;49.928;8.150;2024-02-26T01:55:23;972.42;;;5.87;100
75089;BME280;63673;49.928;8.150;2024-02-26T01:56:24;972.46;;;5.86;100
75089;BME280;63673;49.928;8.150;2024-02-26T01:57:26;972.53;;;5.86;100
75089;BME280;63673;49.928;8.150;2024-02-26T01:58:28;972.53;;;5.85;100
75089;BME280;63673;49.928;8.150;2024-02-26T01:59:29;972.61;;;5.85;100
75089;BME280;63673;49.928;8.150;2024-02-26T02:00:31;972.62;;;5.86;100
75089;BME280;63673;49.928;8.150;2024-02-26T02:01:33;972.65;;;5.85;100
75089;BME280;63673;49.928;8.150;2024-02-26T02:02:35;972.68;;;5.85;100
75089;BME280;63673;49.928;8.150;2024-02-26T02:03:36;972.67;;;5.84;100
75089;BME280;63673;49.928;8.150;2024-02-26T02:04:38;972.69;;;5.83;100
75089;BME280;63673;49.928;8.150;2024-02-26T02:05:40;972.7;;;5.83;100
75089;BME280;63673;49.928;8.150;2024-02-26T02:06:42;972.74;;;5.83;100
75089;BME280;63673;49.928;8.150;2024-02-26T02:07:43;972.71;;;5.83;100
75089;BME280;63673;49.928;8.150;2024-02-26T02:08:45;972.73;;;5.82;100
75089;BME280;63673;49.928;8.150;2024-02-26T02:09:48;972.78;;;5.81;100
75089;BME280;63673;49.928;8.150;2024-02-26T02:10:49;972.78;;;5.81;100
75089;BME280;63673;49.928;8.150;2024-02-26T02:11:50;972.73;;;5.8;100
75089;BME280;63673;49.928;8.150;2024-02-26T02:12:52;972.83;;;5.81;100
75089;BME280;63673;49.928;8.150;2024-02-26T02:13:54;972.81;;;5.8;100
75089;BME280;63673;49.928;8.150;2024-02-26T02:14:55;972.85;;;5.79;100
75089;BME280;63673;49.928;8.150;2024-02-26T02:15:57;972.86;;;5.79;100
75089;BME280;63673;49.928;8.150;2024-02-26T02:16:59;972.88;;;5.79;100
75089;BME280;63673;49.928;8.150;2024-02-26T02:18:01;972.88;;;5.78;100
75089;BME280;63673;49.928;8.150;2024-02-26T02:19:02;972.87;;;5.78;100
75089;BME280;63673;49.928;8.150;2024-02-26T02:20:07;972.85;;;5.78;100
75089;BME280;63673;49.928;8.150;2024-02-26T02:21:06;972.9;;;5.77;100
75089;BME280;63673;49.928;8.150;2024-02-26T02:22:08;972.89;;;5.76;100
75089;BME280;63673;49.928;8.150;2024-02-26T02:23:09;972.91;;;5.76;100
75089;BME280;63673;49.928;8.150;2024-02-26T02:24:11;972.95;;;5.76;100
75089;BME280;63673;49.928;8.150;2024-02-26T02:25:13;972.9;;;5.75;100
75089;BME280;63673;49.928;8.150;2024-02-26T02:26:15;972.9;;;5.74;100
75089;BME280;63673;49.928;8.150;2024-02-26T02:27:16;972.9;;;5.75;100
75089;BME280;63673;49.928;8.150;2024-02-26T02:28:18;972.95;;;5.74;100
75089;BME280;63673;49.928;8.150;2024-02-26T02:29:20;972.92;;;5.73;100
75089;BME280;63673;49.928;8.150;2024-02-26T02:30:21;972.91;;;5.73;100
75089;BME280;63673;49.928;8.150;2024-02-26T02:31:23;972.9;;;5.73;100
75089;BME280;63673;49.928;8.150;2024-02-26T02:32:25;972.89;;;5.73;100
75089;BME280;63673;49.928;8.150;2024-02-26T02:33:27;972.94;;;5.73;100
75089;BME280;63673;49.928;8.150;2024-02-26T02:34:28;972.96;;;5.73;100
75089;BME280;63673;49.928;8.150;2024-02-26T02:35:30;973.02;;;5.72;100
75089;BME280;63673;49.928;8.150;2024-02-26T02:36:32;973;;;5.71;100
75089;BME280;63673;49.928;8.150;2024-02-26T02:37:34;973.01;;;5.7;100
75089;BME280;63673;49.928;8.150;2024-02-26T02:38:35;972.98;;;5.68;100
75089;BME280;63673;49.928;8.150;2024-02-26T02:39:37;972.99;;;5.68;100
75089;BME280;63673;49.928;8.150;2024-02-26T02:40:39;973.03;;;5.68;100
75089;BME280;63673;49.928;8.150;2024-02-26T02:41:41;973.02;;;5.66;100
75089;BME280;63673;49.928;8.150;2024-02-26T02:42:42;973.06;;;5.65;100
75089;BME280;63673;49.928;8.150;2024-02-26T02:43:44;973.08;;;5.65;100
75089;BME280;63673;49.928;8.150;2024-02-26T02:44:46;973.01;;;5.64;100
75089;BME280;63673;49.928;8.150;2024-02-26T02:45:47;973.06;;;5.63;100
75089;BME280;63673;49.928;8.150;2024-02-26T02:46:49;973.07;;;5.61;100
75089;BME280;63673;49.928;8.150;2024-02-26T02:47:51;973.05;;;5.6;100
75089;BME280;63673;49.928;8.150;2024-02-26T02:48:53;973.08;;;5.59;100
75089;BME280;63673;49.928;8.150;2024-02-26T02:49:54;973.02;;;5.57;100
75089;BME280;63673;49.928;8.150;2024-02-26T02:50:56;973.05;;;5.56;100
75089;BME280;63673;49.928;8.150;2024-02-26T02:51:58;972.98;;;5.55;100
75089;BME280;63673;49.928;8.150;2024-02-26T02:53:00;973.04;;;5.54;100
75089;BME280;63673;49.928;8.150;2024-02-26T02:54:01;972.96;;;5.53;100
75089;BME280;63673;49.928;8.150;2024-02-26T02:55:03;972.95;;;5.51;100
75089;BME280;63673;49.928;8.150;2024-02-26T02:56:05;972.99;;;5.48;100
75089;BME280;63673;49.928;8.150;2024-02-26T02:57:07;972.97;;;5.49;100
75089;BME280;63673;49.928;8.150;2024-02-26T02:58:08;972.94;;;5.47;100
75089;BME280;63673;49.928;8.150;2024-02-26T02:59:10;972.89;;;5.45;100
75089;BME280;63673;49.928;8.150;2024-02-26T03:00:12;972.98;;;5.44;100
75089;BME280;63673;49.928;8.150;2024-02-26T03:01:13;972.92;;;5.43;100
75089;BME280;63673;49.928;8.150;2024-02-26T03:02:15;972.91;;;5.42;100
75089;BME280;63673;49.928;8.150;2024-02-26T03:03:17;972.91;;;5.4;100
75089;BME280;63673;49.928;8.150;2024-02-26T03:04:19;972.98;;;5.38;100
75089;BME280;63673;49.928;8.150;2024-02-26T03:05:20;972.92;;;5.36;100
75089;BME280;63673;49.928;8.150;2024-02-26T03:06:22;972.9;;;5.36;100
75089;BME280;63673;49.928;8.150;2024-02-26T03:07:24;972.91;;;5.34;100
75089;BME280;63673;49.928;8.150;2024-02-26T03:08:26;972.91;;;5.33;100
75089;BME280;63673;49.928;8.150;2024-02-26T03:09:27;972.91;;;5.32;100
75089;BME280;63673;49.928;8.150;2024-02-26T03:10:29;972.84;;;5.3;100
75089;BME280;63673;49.928;8.150;2024-02-26T03:11:31;972.89;;;5.28;100
75089;BME280;63673;49.928;8.150;2024-02-26T03:12:33;972.87;;;5.26;100
75089;BME280;63673;49.928;8.150;2024-02-26T03:13:34;972.85;;;5.25;100
75089;BME280;63673;49.928;8.150;2024-02-26T03:14:36;972.83;;;5.24;100
75089;BME280;63673;49.928;8.150;2024-02-26T03:15:38;972.89;;;5.22;100
75089;BME280;63673;49.928;8.150;2024-02-26T03:16:39;972.91;;;5.22;100
75089;BME280;63673;49.928;8.150;2024-02-26T03:17:41;972.88;;;5.2;100
75089;BME280;63673;49.928;8.150;2024-02-26T03:18:43;972.91;;;5.19;100
75089;BME280;63673;49.928;8.150;2024-02-26T03:19:45;972.95;;;5.17;100
75089;BME280;63673;49.928;8.150;2024-02-26T03:20:46;972.94;;;5.16;100
75089;BME280;63673;49.928;8.150;2024-02-26T03:21:48;972.97;;;5.15;100
75089;BME280;63673;49.928;8.150;2024-02-26T03:22:50;972.86;;;5.13;100
75089;BME280;63673;49.928;8.150;2024-02-26T03:23:52;972.91;;;5.11;100
75089;BME280;63673;49.928;8.150;2024-02-26T03:24:53;972.92;;;5.11;100
75089;BME280;63673;49.928;8.150;2024-02-26T03:25:55;972.94;;;5.09;100
75089;BME280;63673;49.928;8.150;2024-02-26T03:26:57;972.92;;;5.08;100
75089;BME280;63673;49.928;8.150;2024-02-26T03:27:58;972.87;;;5.08;100
75089;BME280;63673;49.928;8.150;2024-02-26T03:29:00;972.87;;;5.07;100
75089;BME280;63673;49.928;8.150;2024-02-26T03:30:02;972.93;;;5.07;100
75089;BME280;63673;49.928;8.150;2024-02-26T03:31:04;972.96;;;5.07;100
75089;BME280;63673;49.928;8.150;2024-02-26T03:32:06;972.92;;;5.07;100
75089;BME280;63673;49.928;8.150;2024-02-26T03:33:07;972.91;;;5.06;100
75089;BME280;63673;49.928;8.150;2024-02-26T03:34:09;972.92;;;5.06;100
75089;BME280;63673;49.928;8.150;2024-02-26T03:35:11;972.94;;;5.05;100
75089;BME280;63673;49.928;8.150;2024-02-26T03:36:12;972.94;;;5.04;100
75089;BME280;63673;49.928;8.150;2024-02-26T03:37:14;972.98;;;5.04;100
75089;BME280;63673;49.928;8.150;2024-02-26T03:38:16;972.96;;;5.03;100
75089;BME280;63673;49.928;8.150;2024-02-26T03:39:18;972.84;;;5.03;100
75089;BME280;63673;49.928;8.150;2024-02-26T03:40:19;972.93;;;5.02;100
75089;BME280;63673;49.928;8.150;2024-02-26T03:41:21;972.95;;;5.02;100
75089;BME280;63673;49.928;8.150;2024-02-26T03:42:23;972.92;;;5;100
75089;BME280;63673;49.928;8.150;2024-02-26T03:43:25;972.91;;;5;100
75089;BME280;63673;49.928;8.150;2024-02-26T03:44:26;972.94;;;4.99;100
75089;BME280;63673;49.928;8.150;2024-02-26T03:45:28;972.91;;;4.98;100
75089;BME280;63673;49.928;8.150;2024-02-26T03:46:30;972.91;;;4.97;100
75089;BME280;63673;49.928;8.150;2024-02-26T03:47:31;972.91;;;4.96;100
75089;BME280;63673;49.928;8.150;2024-02-26T03:48:33;972.91;;;4.96;100
75089;BME280;63673;49.928;8.150;2024-02-26T03:49:35;972.91;;;4.94;100
75089;BME280;63673;49.928;8.150;2024-02-26T03:50:37;972.89;;;4.93;100
75089;BME280;63673;49.928;8.150;2024-02-26T03:51:38;972.91;;;4.92;100
75089;BME280;63673;49.928;8.150;2024-02-26T03:52:40;972.8;;;4.91;100
75089;BME280;63673;49.928;8.150;2024-02-26T03:53:42;972.86;;;4.9;100
75089;BME280;63673;49.928;8.150;2024-02-26T03:54:44;972.82;;;4.89;100
75089;BME280;63673;49.928;8.150;2024-02-26T03:55:45;972.84;;;4.88;100
75089;BME280;63673;49.928;8.150;2024-02-26T03:56:47;972.86;;;4.87;100
75089;BME280;63673;49.928;8.150;2024-02-26T03:57:49;972.89;;;4.85;100
75089;BME280;63673;49.928;8.150;2024-02-26T03:58:51;972.82;;;4.84;100
75089;BME280;63673;49.928;8.150;2024-02-26T03:59:52;972.84;;;4.83;100
75089;BME280;63673;49.928;8.150;2024-02-26T04:00:54;972.83;;;4.83;100
75089;BME280;63673;49.928;8.150;2024-02-26T04:01:56;972.81;;;4.82;100
75089;BME280;63673;49.928;8.150;2024-02-26T04:02:57;972.81;;;4.81;100
75089;BME280;63673;49.928;8.150;2024-02-26T04:03:59;972.77;;;4.8;100
75089;BME280;63673;49.928;8.150;2024-02-26T04:05:01;972.77;;;4.8;100
75089;BME280;63673;49.928;8.150;2024-02-26T04:06:03;972.74;;;4.79;100
75089;BME280;63673;49.928;8.150;2024-02-26T04:07:04;972.75;;;4.8;100
75089;BME280;63673;49.928;8.150;2024-02-26T04:08:06;972.68;;;4.78;100
75089;BME280;63673;49.928;8.150;2024-02-26T04:09:08;972.7;;;4.77;100
75089;BME280;63673;49.928;8.150;2024-02-26T04:10:10;972.68;;;4.77;100
75089;BME280;63673;49.928;8.150;2024-02-26T04:11:11;972.69;;;4.77;100
75089;BME280;63673;49.928;8.150;2024-02-26T04:12:13;972.69;;;4.76;100
75089;BME280;63673;49.928;8.150;2024-02-26T04:13:17;972.69;;;4.76;100
75089;BME280;63673;49.928;8.150;2024-02-26T04:14:16;972.71;;;4.75;100
75089;BME280;63673;49.928;8.150;2024-02-26T04:15:18;972.74;;;4.75;100
75089;BME280;63673;49.928;8.150;2024-02-26T04:16:20;972.71;;;4.74;100
75089;BME280;63673;49.928;8.150;2024-02-26T04:17:22;972.74;;;4.74;100
75089;BME280;63673;49.928;8.150;2024-02-26T04:18:23;972.68;;;4.74;100
75089;BME280;63673;49.928;8.150;2024-02-26T04:19:25;972.71;;;4.74;100
75089;BME280;63673;49.928;8.150;2024-02-26T04:20:27;972.71;;;4.74;100
75089;BME280;63673;49.928;8.150;2024-02-26T04:21:29;972.67;;;4.74;100
75089;BME280;63673;49.928;8.150;2024-02-26T04:22:30;972.74;;;4.73;100
75089;BME280;63673;49.928;8.150;2024-02-26T04:23:32;972.69;;;4.74;100
75089;BME280;63673;49.928;8.150;2024-02-26T04:24:35;972.7;;;4.74;100
75089;BME280;63673;49.928;8.150;2024-02-26T04:25:36;972.71;;;4.74;100
75089;BME280;63673;49.928;8.150;2024-02-26T04:26:37;972.71;;;4.74;100
75089;BME280;63673;49.928;8.150;2024-02-26T04:27:39;972.7;;;4.75;100
75089;BME280;63673;49.928;8.150;2024-02-26T04:28:41;972.65;;;4.75;100
75089;BME280;63673;49.928;8.150;2024-02-26T04:29:42;972.72;;;4.75;100
75089;BME280;63673;49.928;8.150;2024-02-26T04:30:44;972.72;;;4.75;100
75089;BME280;63673;49.928;8.150;2024-02-26T04:31:46;972.75;;;4.75;100
75089;BME280;63673;49.928;8.150;2024-02-26T04:32:48;972.75;;;4.75;100
75089;BME280;63673;49.928;8.150;2024-02-26T04:33:49;972.76;;;4.75;100
75089;BME280;63673;49.928;8.150;2024-02-26T04:34:51;972.72;;;4.76;100
75089;BME280;63673;49.928;8.150;2024-02-26T04:35:53;972.74;;;4.76;100
75089;BME280;63673;49.928;8.150;2024-02-26T04:36:55;972.77;;;4.75;100
75089;BME280;63673;49.928;8.150;2024-02-26T04:37:56;972.79;;;4.76;100
75089;BME280;63673;49.928;8.150;2024-02-26T04:38:58;972.85;;;4.75;100
75089;BME280;63673;49.928;8.150;2024-02-26T04:40:00;972.84;;;4.75;100
75089;BME280;63673;49.928;8.150;2024-02-26T04:41:02;972.83;;;4.74;100
75089;BME280;63673;49.928;8.150;2024-02-26T04:42:03;972.88;;;4.74;100
75089;BME280;63673;49.928;8.150;2024-02-26T04:43:05;972.83;;;4.75;100
75089;BME280;63673;49.928;8.150;2024-02-26T04:44:07;972.85;;;4.75;100
75089;BME280;63673;49.928;8.150;2024-02-26T04:45:08;972.83;;;4.74;100
75089;BME280;63673;49.928;8.150;2024-02-26T04:46:10;972.84;;;4.73;100
75089;BME280;63673;49.928;8.150;2024-02-26T04:47:12;972.86;;;4.73;100
75089;BME280;63673;49.928;8.150;2024-02-26T04:48:14;972.88;;;4.71;100
75089;BME280;63673;49.928;8.150;2024-02-26T04:49:15;972.87;;;4.71;100
75089;BME280;63673;49.928;8.150;2024-02-26T04:50:17;972.85;;;4.71;100
75089;BME280;63673;49.928;8.150;2024-02-26T04:51:19;972.81;;;4.71;100
75089;BME280;63673;49.928;8.150;2024-02-26T04:52:21;972.85;;;4.7;100
75089;BME280;63673;49.928;8.150;2024-02-26T04:53:22;972.84;;;4.7;100
75089;BME280;63673;49.928;8.150;2024-02-26T04:54:24;972.9;;;4.68;100
75089;BME280;63673;49.928;8.150;2024-02-26T04:55:26;972.93;;;4.68;100
75089;BME280;63673;49.928;8.150;2024-02-26T04:56:28;972.96;;;4.68;100
75089;BME280;63673;49.928;8.150;2024-02-26T04:57:29;972.93;;;4.68;100
75089;BME280;63673;49.928;8.150;2024-02-26T04:58:31;972.89;;;4.67;100
75089;BME280;63673;49.928;8.150;2024-02-26T04:59:33;972.97;;;4.67;100
75089;BME280;63673;49.928;8.150;2024-02-26T05:00:34;972.93;;;4.66;100
75089;BME280;63673;49.928;8.150;2024-02-26T05:01:36;972.88;;;4.67;100
75089;BME280;63673;49.928;8.150;2024-02-26T05:02:38;972.91;;;4.66;100
75089;BME280;63673;49.928;8.150;2024-02-26T05:03:40;972.92;;;4.65;100
75089;BME280;63673;49.928;8.150;2024-02-26T05:04:41;972.94;;;4.65;100
75089;BME280;63673;49.928;8.150;2024-02-26T05:05:43;972.9;;;4.66;100
75089;BME280;63673;49.928;8.150;2024-02-26T05:06:45;972.92;;;4.64;100
75089;BME280;63673;49.928;8.150;2024-02-26T05:07:47;972.96;;;4.65;100
75089;BME280;63673;49.928;8.150;2024-02-26T05:08:48;972.81;;;4.65;100
75089;BME280;63673;49.928;8.150;2024-02-26T05:09:50;972.86;;;4.65;100
75089;BME280;63673;49.928;8.150;2024-02-26T05:10:52;972.93;;;4.64;100
75089;BME280;63673;49.928;8.150;2024-02-26T05:11:54;972.9;;;4.64;100
75089;BME280;63673;49.928;8.150;2024-02-26T05:12:55;972.93;;;4.64;100
75089;BME280;63673;49.928;8.150;2024-02-26T05:13:57;972.92;;;4.63;100
75089;BME280;63673;49.928;8.150;2024-02-26T05:14:59;972.87;;;4.62;100
75089;BME280;63673;49.928;8.150;2024-02-26T05:16:00;972.88;;;4.62;100
75089;BME280;63673;49.928;8.150;2024-02-26T05:17:02;972.89;;;4.62;100
75089;BME280;63673;49.928;8.150;2024-02-26T05:18:04;972.88;;;4.61;100
75089;BME280;63673;49.928;8.150;2024-02-26T05:19:06;972.88;;;4.61;100
75089;BME280;63673;49.928;8.150;2024-02-26T05:20:08;972.9;;;4.61;100
75089;BME280;63673;49.928;8.150;2024-02-26T05:21:09;972.91;;;4.61;100
75089;BME280;63673;49.928;8.150;2024-02-26T05:22:11;972.95;;;4.6;100
75089;BME280;63673;49.928;8.150;2024-02-26T05:23:13;972.91;;;4.59;100
75089;BME280;63673;49.928;8.150;2024-02-26T05:24:14;972.87;;;4.61;100
75089;BME280;63673;49.928;8.150;2024-02-26T05:25:16;972.89;;;4.61;100
75089;BME280;63673;49.928;8.150;2024-02-26T05:26:19;972.87;;;4.6;100
75089;BME280;63673;49.928;8.150;2024-02-26T05:27:20;972.82;;;4.61;100
75089;BME280;63673;49.928;8.150;2024-02-26T05:28:21;972.82;;;4.61;100
75089;BME280;63673;49.928;8.150;2024-02-26T05:29:23;972.81;;;4.61;100
75089;BME280;63673;49.928;8.150;2024-02-26T05:30:25;972.83;;;4.61;100
75089;BME280;63673;49.928;8.150;2024-02-26T05:31:28;972.76;;;4.61;100
75089;BME280;63673;49.928;8.150;2024-02-26T05:32:28;972.85;;;4.61;100
75089;BME280;63673;49.928;8.150;2024-02-26T05:33:30;972.82;;;4.61;100
75089;BME280;63673;49.928;8.150;2024-02-26T05:34:32;972.82;;;4.61;100
75089;BME280;63673;49.928;8.150;2024-02-26T05:35:33;972.77;;;4.61;100
75089;BME280;63673;49.928;8.150;2024-02-26T05:36:35;972.76;;;4.62;100
75089;BME280;63673;49.928;8.150;2024-02-26T05:37:37;972.71;;;4.62;100
75089;BME280;63673;49.928;8.150;2024-02-26T05:38:39;972.8;;;4.62;100
75089;BME280;63673;49.928;8.150;2024-02-26T05:39:40;972.8;;;4.63;100
75089;BME280;63673;49.928;8.150;2024-02-26T05:40:42;972.8;;;4.63;100
75089;BME280;63673;49.928;8.150;2024-02-26T05:41:44;972.79;;;4.64;100
75089;BME280;63673;49.928;8.150;2024-02-26T05:42:46;972.82;;;4.65;100
75089;BME280;63673;49.928;8.150;2024-02-26T05:43:47;972.81;;;4.65;100
75089;BME280;63673;49.928;8.150;2024-02-26T05:44:49;972.83;;;4.66;100
75089;BME280;63673;49.928;8.150;2024-02-26T05:45:51;972.82;;;4.66;100
75089;BME280;63673;49.928;8.150;2024-02-26T05:46:52;972.82;;;4.66;100
75089;BME280;63673;49.928;8.150;2024-02-26T05:47:54;972.83;;;4.67;100
75089;BME280;63673;49.928;8.150;2024-02-26T05:48:56;972.84;;;4.68;100
75089;BME280;63673;49.928;8.150;2024-02-26T05:49:58;972.92;;;4.68;100
75089;BME280;63673;49.928;8.150;2024-02-26T05:50:59;972.9;;;4.68;100